sensor_id;sensor_type;location;lat;lon;timestamp;temperature;humidity
30148;DHT22;16960;49.404;8.248;2022-08-19T00:00:51;24.30;54.00
30148;DHT22;16960;49.404;8.248;2022-08-19T00:03:18;24.30;54.00
30148;DHT22;16960;49.404;8.248;2022-08-19T00:05:45;24.30;54.00
30148;DHT22;16960;49.404;8.248;2022-08-19T00:08:12;24.30;54.00
30148;DHT22;16960;49.404;8.248;2022-08-19T00:10:39;24.30;54.00
30148;DHT22;16960;49.404;8.248;2022-08-19T00:13:06;24.30;54.00
30148;DHT22;16960;49.404;8.248;2022-08-19T00:15:34;24.30;54.00
30148;DHT22;16960;49.404;8.248;2022-08-19T00:18:01;24.30;54.00
30148;DHT22;16960;49.404;8.248;2022-08-19T00:20:28;24.30;54.00
30148;DHT22;16960;49.404;8.248;2022-08-19T00:22:55;24.30;54.00
30148;DHT22;16960;49.404;8.248;2022-08-19T00:25:23;24.30;54.00
30148;DHT22;16960;49.404;8.248;2022-08-19T00:27:50;24.30;54.00
30148;DHT22;16960;49.404;8.248;2022-08-19T00:30:17;24.30;54.10
30148;DHT22;16960;49.404;8.248;2022-08-19T00:32:45;24.30;54.10
30148;DHT22;16960;49.404;8.248;2022-08-19T00:35:12;24.30;54.20
30148;DHT22;16960;49.404;8.248;2022-08-19T00:37:39;24.30;54.20
30148;DHT22;16960;49.404;8.248;2022-08-19T00:40:11;24.30;54.20
30148;DHT22;16960;49.404;8.248;2022-08-19T00:42:39;24.30;54.20
30148;DHT22;16960;49.404;8.248;2022-08-19T00:45:11;24.30;54.30
30148;DHT22;16960;49.404;8.248;2022-08-19T00:47:38;24.20;54.20
30148;DHT22;16960;49.404;8.248;2022-08-19T00:50:08;24.20;54.30
30148;DHT22;16960;49.404;8.248;2022-08-19T00:52:40;24.20;54.30
30148;DHT22;16960;49.404;8.248;2022-08-19T00:55:13;24.20;54.30
30148;DHT22;16960;49.404;8.248;2022-08-19T00:57:44;24.20;54.40
30148;DHT22;16960;49.404;8.248;2022-08-19T01:00:14;24.20;54.40
30148;DHT22;16960;49.404;8.248;2022-08-19T01:02:42;24.10;54.40
30148;DHT22;16960;49.404;8.248;2022-08-19T01:05:14;24.10;54.50
30148;DHT22;16960;49.404;8.248;2022-08-19T01:07:44;24.10;54.50
30148;DHT22;16960;49.404;8.248;2022-08-19T01:10:14;24.10;54.50
30148;DHT22;16960;49.404;8.248;2022-08-19T01:12:42;24.10;54.50
30148;DHT22;16960;49.404;8.248;2022-08-19T01:15:12;24.10;54.60
30148;DHT22;16960;49.404;8.248;2022-08-19T01:17:41;24.10;54.60
30148;DHT22;16960;49.404;8.248;2022-08-19T01:20:15;24.10;54.50
30148;DHT22;16960;49.404;8.248;2022-08-19T01:22:46;24.00;54.50
30148;DHT22;16960;49.404;8.248;2022-08-19T01:25:16;24.00;54.40
30148;DHT22;16960;49.404;8.248;2022-08-19T01:27:49;24.10;54.50
30148;DHT22;16960;49.404;8.248;2022-08-19T01:30:19;24.00;54.40
30148;DHT22;16960;49.404;8.248;2022-08-19T01:32:48;24.00;54.40
30148;DHT22;16960;49.404;8.248;2022-08-19T01:35:15;24.00;54.50
30148;DHT22;16960;49.404;8.248;2022-08-19T01:37:49;24.00;54.50
30148;DHT22;16960;49.404;8.248;2022-08-19T01:40:18;24.00;54.60
30148;DHT22;16960;49.404;8.248;2022-08-19T01:42:45;24.00;54.60
30148;DHT22;16960;49.404;8.248;2022-08-19T01:45:13;23.90;54.60
30148;DHT22;16960;49.404;8.248;2022-08-19T01:47:40;24.00;54.50
30148;DHT22;16960;49.404;8.248;2022-08-19T01:50:10;24.00;54.40
30148;DHT22;16960;49.404;8.248;2022-08-19T01:52:37;24.00;54.40
30148;DHT22;16960;49.404;8.248;2022-08-19T01:55:10;24.00;54.60
30148;DHT22;16960;49.404;8.248;2022-08-19T01:57:38;24.00;54.60
30148;DHT22;16960;49.404;8.248;2022-08-19T02:00:09;24.00;54.60
30148;DHT22;16960;49.404;8.248;2022-08-19T02:02:36;24.00;54.60
30148;DHT22;16960;49.404;8.248;2022-08-19T02:05:04;24.00;54.60
30148;DHT22;16960;49.404;8.248;2022-08-19T02:07:32;24.00;54.60
30148;DHT22;16960;49.404;8.248;2022-08-19T02:10:02;24.00;54.70
30148;DHT22;16960;49.404;8.248;2022-08-19T02:12:31;24.00;54.70
30148;DHT22;16960;49.404;8.248;2022-08-19T02:14:59;24.00;54.70
30148;DHT22;16960;49.404;8.248;2022-08-19T02:17:26;24.00;54.70
30148;DHT22;16960;49.404;8.248;2022-08-19T02:19:54;23.90;54.80
30148;DHT22;16960;49.404;8.248;2022-08-19T02:22:21;23.90;54.90
30148;DHT22;16960;49.404;8.248;2022-08-19T02:24:48;23.90;54.90
30148;DHT22;16960;49.404;8.248;2022-08-19T02:27:15;23.90;55.00
30148;DHT22;16960;49.404;8.248;2022-08-19T02:29:44;23.90;55.00
30148;DHT22;16960;49.404;8.248;2022-08-19T02:32:12;23.90;55.00
30148;DHT22;16960;49.404;8.248;2022-08-19T02:34:39;23.80;55.00
30148;DHT22;16960;49.404;8.248;2022-08-19T02:37:06;23.80;55.00
30148;DHT22;16960;49.404;8.248;2022-08-19T02:39:54;23.80;55.00
30148;DHT22;16960;49.404;8.248;2022-08-19T02:42:20;23.80;55.00
30148;DHT22;16960;49.404;8.248;2022-08-19T02:44:48;23.80;54.90
30148;DHT22;16960;49.404;8.248;2022-08-19T02:47:15;23.80;54.90
30148;DHT22;16960;49.404;8.248;2022-08-19T02:49:42;23.80;54.90
30148;DHT22;16960;49.404;8.248;2022-08-19T02:52:09;23.80;55.00
30148;DHT22;16960;49.404;8.248;2022-08-19T02:54:36;23.80;54.80
30148;DHT22;16960;49.404;8.248;2022-08-19T02:57:04;23.90;54.80
30148;DHT22;16960;49.404;8.248;2022-08-19T02:59:31;23.90;54.90
30148;DHT22;16960;49.404;8.248;2022-08-19T03:01:59;23.90;54.80
30148;DHT22;16960;49.404;8.248;2022-08-19T03:04:26;23.90;54.80
30148;DHT22;16960;49.404;8.248;2022-08-19T03:06:53;23.90;54.80
30148;DHT22;16960;49.404;8.248;2022-08-19T03:09:20;23.80;54.70
30148;DHT22;16960;49.404;8.248;2022-08-19T03:11:47;23.80;54.90
30148;DHT22;16960;49.404;8.248;2022-08-19T03:14:15;23.80;54.90
30148;DHT22;16960;49.404;8.248;2022-08-19T03:16:45;23.80;55.00
30148;DHT22;16960;49.404;8.248;2022-08-19T03:19:16;23.80;55.00
30148;DHT22;16960;49.404;8.248;2022-08-19T03:21:45;23.80;55.20
30148;DHT22;16960;49.404;8.248;2022-08-19T03:24:13;23.80;55.20
30148;DHT22;16960;49.404;8.248;2022-08-19T03:26:42;23.70;55.30
30148;DHT22;16960;49.404;8.248;2022-08-19T03:29:10;23.70;55.40
30148;DHT22;16960;49.404;8.248;2022-08-19T03:31:38;23.70;55.50
30148;DHT22;16960;49.404;8.248;2022-08-19T03:34:05;23.70;55.40
30148;DHT22;16960;49.404;8.248;2022-08-19T03:36:33;23.60;55.30
30148;DHT22;16960;49.404;8.248;2022-08-19T03:39:01;23.60;55.90
30148;DHT22;16960;49.404;8.248;2022-08-19T03:41:31;23.60;55.20
30148;DHT22;16960;49.404;8.248;2022-08-19T03:43:59;23.60;55.20
30148;DHT22;16960;49.404;8.248;2022-08-19T03:46:27;23.60;55.20
30148;DHT22;16960;49.404;8.248;2022-08-19T03:48:57;23.60;55.30
30148;DHT22;16960;49.404;8.248;2022-08-19T03:51:29;23.60;55.30
30148;DHT22;16960;49.404;8.248;2022-08-19T03:54:00;23.50;55.20
30148;DHT22;16960;49.404;8.248;2022-08-19T03:56:28;23.50;55.30
30148;DHT22;16960;49.404;8.248;2022-08-19T03:58:57;23.50;55.30
30148;DHT22;16960;49.404;8.248;2022-08-19T04:01:27;23.50;55.30
30148;DHT22;16960;49.404;8.248;2022-08-19T04:03:55;23.50;55.30
30148;DHT22;16960;49.404;8.248;2022-08-19T04:06:25;23.50;55.40
30148;DHT22;16960;49.404;8.248;2022-08-19T04:08:53;23.50;55.40
30148;DHT22;16960;49.404;8.248;2022-08-19T04:11:24;23.40;55.30
30148;DHT22;16960;49.404;8.248;2022-08-19T04:13:52;23.40;55.30
30148;DHT22;16960;49.404;8.248;2022-08-19T04:16:20;23.50;55.40
30148;DHT22;16960;49.404;8.248;2022-08-19T04:18:48;23.50;55.40
30148;DHT22;16960;49.404;8.248;2022-08-19T04:21:17;23.50;55.30
30148;DHT22;16960;49.404;8.248;2022-08-19T04:23:45;23.50;56.10
30148;DHT22;16960;49.404;8.248;2022-08-19T04:26:13;23.50;55.40
30148;DHT22;16960;49.404;8.248;2022-08-19T04:28:42;23.50;55.40
30148;DHT22;16960;49.404;8.248;2022-08-19T04:31:13;23.50;55.40
30148;DHT22;16960;49.404;8.248;2022-08-19T04:33:41;23.50;55.40
30148;DHT22;16960;49.404;8.248;2022-08-19T04:36:15;23.50;55.30
30148;DHT22;16960;49.404;8.248;2022-08-19T04:38:42;23.50;55.30
30148;DHT22;16960;49.404;8.248;2022-08-19T04:41:09;23.50;55.30
30148;DHT22;16960;49.404;8.248;2022-08-19T04:43:57;23.50;55.30
30148;DHT22;16960;49.404;8.248;2022-08-19T04:46:24;23.50;55.30
30148;DHT22;16960;49.404;8.248;2022-08-19T04:48:51;23.50;55.40
30148;DHT22;16960;49.404;8.248;2022-08-19T04:51:18;23.50;55.40
30148;DHT22;16960;49.404;8.248;2022-08-19T04:53:46;23.50;55.40
30148;DHT22;16960;49.404;8.248;2022-08-19T04:56:15;23.50;55.50
30148;DHT22;16960;49.404;8.248;2022-08-19T04:58:44;23.50;55.50
30148;DHT22;16960;49.404;8.248;2022-08-19T05:01:13;23.40;55.40
30148;DHT22;16960;49.404;8.248;2022-08-19T05:03:41;23.50;55.40
30148;DHT22;16960;49.404;8.248;2022-08-19T05:06:10;23.50;55.30
30148;DHT22;16960;49.404;8.248;2022-08-19T05:08:39;23.50;55.40
30148;DHT22;16960;49.404;8.248;2022-08-19T05:11:14;23.50;55.50
30148;DHT22;16960;49.404;8.248;2022-08-19T05:13:41;23.50;55.70
30148;DHT22;16960;49.404;8.248;2022-08-19T05:16:09;23.50;55.80
30148;DHT22;16960;49.404;8.248;2022-08-19T05:18:38;23.50;55.80
30148;DHT22;16960;49.404;8.248;2022-08-19T05:21:23;23.40;55.70
30148;DHT22;16960;49.404;8.248;2022-08-19T05:24:13;23.40;56.00
30148;DHT22;16960;49.404;8.248;2022-08-19T05:26:44;23.40;56.00
30148;DHT22;16960;49.404;8.248;2022-08-19T05:29:13;23.40;55.90
30148;DHT22;16960;49.404;8.248;2022-08-19T05:31:40;23.40;55.90
30148;DHT22;16960;49.404;8.248;2022-08-19T05:34:09;23.40;55.90
30148;DHT22;16960;49.404;8.248;2022-08-19T05:36:40;23.40;55.80
30148;DHT22;16960;49.404;8.248;2022-08-19T05:39:11;23.40;55.80
30148;DHT22;16960;49.404;8.248;2022-08-19T05:41:41;23.40;55.70
30148;DHT22;16960;49.404;8.248;2022-08-19T05:44:08;23.40;55.70
30148;DHT22;16960;49.404;8.248;2022-08-19T05:46:36;23.50;55.70
30148;DHT22;16960;49.404;8.248;2022-08-19T05:49:03;23.40;55.80
30148;DHT22;16960;49.404;8.248;2022-08-19T05:51:33;23.50;55.80
30148;DHT22;16960;49.404;8.248;2022-08-19T05:54:01;23.50;55.70
30148;DHT22;16960;49.404;8.248;2022-08-19T05:56:28;23.50;55.70
30148;DHT22;16960;49.404;8.248;2022-08-19T05:58:56;23.50;56.20
30148;DHT22;16960;49.404;8.248;2022-08-19T06:01:25;23.50;56.40
30148;DHT22;16960;49.404;8.248;2022-08-19T06:03:52;23.50;56.70
30148;DHT22;16960;49.404;8.248;2022-08-19T06:06:20;23.50;56.60
30148;DHT22;16960;49.404;8.248;2022-08-19T06:08:48;23.50;56.50
30148;DHT22;16960;49.404;8.248;2022-08-19T06:11:20;23.50;56.50
30148;DHT22;16960;49.404;8.248;2022-08-19T06:13:48;23.50;56.60
30148;DHT22;16960;49.404;8.248;2022-08-19T06:16:17;23.50;56.50
30148;DHT22;16960;49.404;8.248;2022-08-19T06:18:48;23.60;56.60
30148;DHT22;16960;49.404;8.248;2022-08-19T06:21:17;23.60;56.40
30148;DHT22;16960;49.404;8.248;2022-08-19T06:23:44;23.60;56.30
30148;DHT22;16960;49.404;8.248;2022-08-19T06:26:15;23.70;56.30
30148;DHT22;16960;49.404;8.248;2022-08-19T06:28:43;23.70;56.20
30148;DHT22;16960;49.404;8.248;2022-08-19T06:31:13;23.70;56.20
30148;DHT22;16960;49.404;8.248;2022-08-19T06:33:42;23.80;56.20
30148;DHT22;16960;49.404;8.248;2022-08-19T06:36:16;23.80;57.00
30148;DHT22;16960;49.404;8.248;2022-08-19T06:38:44;23.80;56.20
30148;DHT22;16960;49.404;8.248;2022-08-19T06:41:11;23.90;56.20
30148;DHT22;16960;49.404;8.248;2022-08-19T06:43:39;23.90;56.20
30148;DHT22;16960;49.404;8.248;2022-08-19T06:46:11;23.90;56.10
30148;DHT22;16960;49.404;8.248;2022-08-19T06:48:39;23.90;56.00
30148;DHT22;16960;49.404;8.248;2022-08-19T06:51:06;23.90;56.10
30148;DHT22;16960;49.404;8.248;2022-08-19T06:53:33;23.90;56.10
30148;DHT22;16960;49.404;8.248;2022-08-19T06:56:01;23.90;56.10
30148;DHT22;16960;49.404;8.248;2022-08-19T06:58:29;23.90;56.10
30148;DHT22;16960;49.404;8.248;2022-08-19T07:01:01;24.00;56.10
30148;DHT22;16960;49.404;8.248;2022-08-19T07:03:31;23.90;56.10
30148;DHT22;16960;49.404;8.248;2022-08-19T07:06:02;24.00;56.30
30148;DHT22;16960;49.404;8.248;2022-08-19T07:08:29;24.00;56.00
30148;DHT22;16960;49.404;8.248;2022-08-19T07:10:57;24.10;56.00
30148;DHT22;16960;49.404;8.248;2022-08-19T07:13:24;24.10;55.70
30148;DHT22;16960;49.404;8.248;2022-08-19T07:15:51;24.10;55.60
30148;DHT22;16960;49.404;8.248;2022-08-19T07:18:20;24.20;55.60
30148;DHT22;16960;49.404;8.248;2022-08-19T07:20:47;24.20;55.60
30148;DHT22;16960;49.404;8.248;2022-08-19T07:23:14;24.20;55.50
30148;DHT22;16960;49.404;8.248;2022-08-19T07:25:41;24.20;55.50
30148;DHT22;16960;49.404;8.248;2022-08-19T07:28:09;24.30;55.40
30148;DHT22;16960;49.404;8.248;2022-08-19T07:30:39;24.30;55.30
30148;DHT22;16960;49.404;8.248;2022-08-19T07:33:06;24.30;55.30
30148;DHT22;16960;49.404;8.248;2022-08-19T07:35:34;24.30;55.20
30148;DHT22;16960;49.404;8.248;2022-08-19T07:38:01;24.40;55.30
30148;DHT22;16960;49.404;8.248;2022-08-19T07:40:32;24.40;55.30
30148;DHT22;16960;49.404;8.248;2022-08-19T07:42:58;24.40;55.30
30148;DHT22;16960;49.404;8.248;2022-08-19T07:45:25;24.40;55.20
30148;DHT22;16960;49.404;8.248;2022-08-19T07:47:54;24.50;55.30
30148;DHT22;16960;49.404;8.248;2022-08-19T07:50:21;24.50;55.20
30148;DHT22;16960;49.404;8.248;2022-08-19T07:52:49;24.50;55.20
30148;DHT22;16960;49.404;8.248;2022-08-19T07:55:22;24.50;55.30
30148;DHT22;16960;49.404;8.248;2022-08-19T07:57:49;24.60;55.30
30148;DHT22;16960;49.404;8.248;2022-08-19T08:00:18;24.60;55.30
30148;DHT22;16960;49.404;8.248;2022-08-19T08:02:45;24.60;55.20
30148;DHT22;16960;49.404;8.248;2022-08-19T08:05:13;24.60;55.00
30148;DHT22;16960;49.404;8.248;2022-08-19T08:07:58;24.70;54.90
30148;DHT22;16960;49.404;8.248;2022-08-19T08:10:43;24.70;54.80
30148;DHT22;16960;49.404;8.248;2022-08-19T08:13:10;24.70;54.90
30148;DHT22;16960;49.404;8.248;2022-08-19T08:15:37;24.70;54.80
30148;DHT22;16960;49.404;8.248;2022-08-19T08:18:04;24.70;54.70
30148;DHT22;16960;49.404;8.248;2022-08-19T08:20:32;24.70;54.60
30148;DHT22;16960;49.404;8.248;2022-08-19T08:23:00;24.80;54.40
30148;DHT22;16960;49.404;8.248;2022-08-19T08:25:44;24.80;54.30
30148;DHT22;16960;49.404;8.248;2022-08-19T08:28:14;24.80;54.40
30148;DHT22;16960;49.404;8.248;2022-08-19T08:30:41;24.90;54.50
30148;DHT22;16960;49.404;8.248;2022-08-19T08:33:11;24.80;54.50
30148;DHT22;16960;49.404;8.248;2022-08-19T08:35:40;24.90;54.50
30148;DHT22;16960;49.404;8.248;2022-08-19T08:38:09;25.00;54.60
30148;DHT22;16960;49.404;8.248;2022-08-19T08:40:42;25.00;54.20
30148;DHT22;16960;49.404;8.248;2022-08-19T08:43:19;25.00;54.00
30148;DHT22;16960;49.404;8.248;2022-08-19T08:45:53;25.10;53.90
30148;DHT22;16960;49.404;8.248;2022-08-19T08:48:24;25.10;53.70
30148;DHT22;16960;49.404;8.248;2022-08-19T08:50:58;25.10;53.60
30148;DHT22;16960;49.404;8.248;2022-08-19T08:53:27;25.10;53.60
30148;DHT22;16960;49.404;8.248;2022-08-19T08:55:55;25.10;53.60
30148;DHT22;16960;49.404;8.248;2022-08-19T08:58:27;25.20;53.60
30148;DHT22;16960;49.404;8.248;2022-08-19T09:00:56;25.20;53.50
30148;DHT22;16960;49.404;8.248;2022-08-19T09:03:25;25.20;53.30
30148;DHT22;16960;49.404;8.248;2022-08-19T09:06:00;25.20;53.10
30148;DHT22;16960;49.404;8.248;2022-08-19T09:08:39;25.30;53.10
30148;DHT22;16960;49.404;8.248;2022-08-19T09:11:09;25.30;52.90
30148;DHT22;16960;49.404;8.248;2022-08-19T09:13:44;25.30;52.80
30148;DHT22;16960;49.404;8.248;2022-08-19T09:16:16;25.30;52.70
30148;DHT22;16960;49.404;8.248;2022-08-19T09:18:45;25.40;52.70
30148;DHT22;16960;49.404;8.248;2022-08-19T09:21:13;25.40;52.60
30148;DHT22;16960;49.404;8.248;2022-08-19T09:23:41;25.30;52.60
30148;DHT22;16960;49.404;8.248;2022-08-19T09:26:11;25.30;52.50
30148;DHT22;16960;49.404;8.248;2022-08-19T09:28:39;25.40;52.50
30148;DHT22;16960;49.404;8.248;2022-08-19T09:31:09;25.40;52.40
30148;DHT22;16960;49.404;8.248;2022-08-19T09:33:36;25.40;52.70
30148;DHT22;16960;49.404;8.248;2022-08-19T09:36:08;25.40;52.70
30148;DHT22;16960;49.404;8.248;2022-08-19T09:38:36;25.40;53.00
30148;DHT22;16960;49.404;8.248;2022-08-19T09:41:07;25.40;52.80
30148;DHT22;16960;49.404;8.248;2022-08-19T09:43:35;25.40;52.80
30148;DHT22;16960;49.404;8.248;2022-08-19T09:46:04;25.40;52.70
30148;DHT22;16960;49.404;8.248;2022-08-19T09:48:32;25.40;52.60
30148;DHT22;16960;49.404;8.248;2022-08-19T09:51:04;25.40;52.50
30148;DHT22;16960;49.404;8.248;2022-08-19T09:53:32;25.40;52.40
30148;DHT22;16960;49.404;8.248;2022-08-19T09:55:59;25.50;52.40
30148;DHT22;16960;49.404;8.248;2022-08-19T09:58:27;25.50;52.30
30148;DHT22;16960;49.404;8.248;2022-08-19T10:00:56;25.50;52.30
30148;DHT22;16960;49.404;8.248;2022-08-19T10:03:24;25.50;52.30
30148;DHT22;16960;49.404;8.248;2022-08-19T10:05:52;25.50;52.20
30148;DHT22;16960;49.404;8.248;2022-08-19T10:08:23;25.60;52.10
30148;DHT22;16960;49.404;8.248;2022-08-19T10:10:51;25.60;52.10
30148;DHT22;16960;49.404;8.248;2022-08-19T10:13:20;25.60;52.10
30148;DHT22;16960;49.404;8.248;2022-08-19T10:15:52;25.60;52.00
30148;DHT22;16960;49.404;8.248;2022-08-19T10:18:20;25.60;52.10
30148;DHT22;16960;49.404;8.248;2022-08-19T10:20:49;25.60;52.00
30148;DHT22;16960;49.404;8.248;2022-08-19T10:23:17;25.70;52.70
30148;DHT22;16960;49.404;8.248;2022-08-19T10:25:45;25.70;51.80
30148;DHT22;16960;49.404;8.248;2022-08-19T10:28:12;25.70;51.90
30148;DHT22;16960;49.404;8.248;2022-08-19T10:30:39;25.70;51.80
30148;DHT22;16960;49.404;8.248;2022-08-19T10:33:07;25.70;51.70
30148;DHT22;16960;49.404;8.248;2022-08-19T10:35:34;25.80;51.70
30148;DHT22;16960;49.404;8.248;2022-08-19T10:38:02;25.80;51.60
30148;DHT22;16960;49.404;8.248;2022-08-19T10:40:29;25.80;51.50
30148;DHT22;16960;49.404;8.248;2022-08-19T10:42:56;25.80;51.50
30148;DHT22;16960;49.404;8.248;2022-08-19T10:45:23;25.80;51.40
30148;DHT22;16960;49.404;8.248;2022-08-19T10:47:52;25.80;52.10
30148;DHT22;16960;49.404;8.248;2022-08-19T10:50:21;25.80;51.30
30148;DHT22;16960;49.404;8.248;2022-08-19T10:53:07;25.80;51.40
30148;DHT22;16960;49.404;8.248;2022-08-19T10:55:35;25.80;51.30
30148;DHT22;16960;49.404;8.248;2022-08-19T10:58:21;25.80;51.30
30148;DHT22;16960;49.404;8.248;2022-08-19T11:00:54;25.80;51.30
30148;DHT22;16960;49.404;8.248;2022-08-19T11:03:22;25.90;51.30
30148;DHT22;16960;49.404;8.248;2022-08-19T11:05:58;25.80;51.40
30148;DHT22;16960;49.404;8.248;2022-08-19T11:08:25;25.90;51.30
30148;DHT22;16960;49.404;8.248;2022-08-19T11:10:54;25.90;51.30
30148;DHT22;16960;49.404;8.248;2022-08-19T11:13:26;25.90;51.20
30148;DHT22;16960;49.404;8.248;2022-08-19T11:15:58;25.90;51.20
30148;DHT22;16960;49.404;8.248;2022-08-19T11:18:26;25.90;51.20
30148;DHT22;16960;49.404;8.248;2022-08-19T11:20:53;25.90;51.30
30148;DHT22;16960;49.404;8.248;2022-08-19T11:23:21;25.90;51.20
30148;DHT22;16960;49.404;8.248;2022-08-19T11:25:49;26.00;51.70
30148;DHT22;16960;49.404;8.248;2022-08-19T11:28:16;26.00;51.80
30148;DHT22;16960;49.404;8.248;2022-08-19T11:30:43;26.00;51.60
30148;DHT22;16960;49.404;8.248;2022-08-19T11:33:10;26.00;51.50
30148;DHT22;16960;49.404;8.248;2022-08-19T11:35:39;26.00;51.50
30148;DHT22;16960;49.404;8.248;2022-08-19T11:38:06;26.10;51.50
30148;DHT22;16960;49.404;8.248;2022-08-19T11:40:35;26.10;51.50
30148;DHT22;16960;49.404;8.248;2022-08-19T11:43:02;26.10;51.60
30148;DHT22;16960;49.404;8.248;2022-08-19T11:45:30;26.20;51.50
30148;DHT22;16960;49.404;8.248;2022-08-19T11:47:57;26.20;51.30
30148;DHT22;16960;49.404;8.248;2022-08-19T11:50:24;26.20;51.30
30148;DHT22;16960;49.404;8.248;2022-08-19T11:52:54;26.20;51.20
30148;DHT22;16960;49.404;8.248;2022-08-19T11:55:21;26.30;51.20
30148;DHT22;16960;49.404;8.248;2022-08-19T11:57:50;26.20;51.40
30148;DHT22;16960;49.404;8.248;2022-08-19T12:00:18;26.30;51.40
30148;DHT22;16960;49.404;8.248;2022-08-19T12:02:45;26.30;51.30
30148;DHT22;16960;49.404;8.248;2022-08-19T12:05:11;26.30;51.30
30148;DHT22;16960;49.404;8.248;2022-08-19T12:07:39;26.40;51.30
30148;DHT22;16960;49.404;8.248;2022-08-19T12:10:07;26.40;51.30
30148;DHT22;16960;49.404;8.248;2022-08-19T12:12:35;26.40;51.20
30148;DHT22;16960;49.404;8.248;2022-08-19T12:15:06;26.50;51.20
30148;DHT22;16960;49.404;8.248;2022-08-19T12:17:33;26.40;51.10
30148;DHT22;16960;49.404;8.248;2022-08-19T12:20:00;26.50;51.10
30148;DHT22;16960;49.404;8.248;2022-08-19T12:22:27;26.50;51.00
30148;DHT22;16960;49.404;8.248;2022-08-19T12:24:54;26.50;51.20
30148;DHT22;16960;49.404;8.248;2022-08-19T12:27:21;26.50;51.00
30148;DHT22;16960;49.404;8.248;2022-08-19T12:29:48;26.50;50.90
30148;DHT22;16960;49.404;8.248;2022-08-19T12:32:16;26.50;50.80
30148;DHT22;16960;49.404;8.248;2022-08-19T12:34:43;26.60;50.80
30148;DHT22;16960;49.404;8.248;2022-08-19T12:37:13;26.60;50.70
30148;DHT22;16960;49.404;8.248;2022-08-19T12:39:41;26.60;50.80
30148;DHT22;16960;49.404;8.248;2022-08-19T12:42:09;26.60;50.80
30148;DHT22;16960;49.404;8.248;2022-08-19T12:44:37;26.60;50.70
30148;DHT22;16960;49.404;8.248;2022-08-19T12:47:05;26.60;50.80
30148;DHT22;16960;49.404;8.248;2022-08-19T12:49:34;26.60;50.70
30148;DHT22;16960;49.404;8.248;2022-08-19T12:52:03;26.70;50.60
30148;DHT22;16960;49.404;8.248;2022-08-19T12:54:31;26.70;50.50
30148;DHT22;16960;49.404;8.248;2022-08-19T12:56:59;26.70;50.40
30148;DHT22;16960;49.404;8.248;2022-08-19T12:59:26;26.70;50.60
30148;DHT22;16960;49.404;8.248;2022-08-19T13:01:53;26.70;50.50
30148;DHT22;16960;49.404;8.248;2022-08-19T13:04:20;26.70;50.60
30148;DHT22;16960;49.404;8.248;2022-08-19T13:06:49;26.70;50.60
30148;DHT22;16960;49.404;8.248;2022-08-19T13:09:16;26.70;50.50
30148;DHT22;16960;49.404;8.248;2022-08-19T13:11:43;26.80;50.60
30148;DHT22;16960;49.404;8.248;2022-08-19T13:14:10;26.80;50.50
30148;DHT22;16960;49.404;8.248;2022-08-19T13:16:37;26.80;50.40
30148;DHT22;16960;49.404;8.248;2022-08-19T13:19:05;26.80;50.40
30148;DHT22;16960;49.404;8.248;2022-08-19T13:21:33;26.80;50.30
30148;DHT22;16960;49.404;8.248;2022-08-19T13:24:01;26.90;50.20
30148;DHT22;16960;49.404;8.248;2022-08-19T13:26:28;26.90;50.20
30148;DHT22;16960;49.404;8.248;2022-08-19T13:28:55;26.90;50.20
30148;DHT22;16960;49.404;8.248;2022-08-19T13:31:41;26.90;50.10
30148;DHT22;16960;49.404;8.248;2022-08-19T13:34:28;26.90;50.10
30148;DHT22;16960;49.404;8.248;2022-08-19T13:36:56;26.90;50.10
30148;DHT22;16960;49.404;8.248;2022-08-19T13:39:24;26.90;50.10
30148;DHT22;16960;49.404;8.248;2022-08-19T13:41:53;26.90;50.00
30148;DHT22;16960;49.404;8.248;2022-08-19T13:44:20;26.90;50.00
30148;DHT22;16960;49.404;8.248;2022-08-19T13:46:47;26.90;50.00
30148;DHT22;16960;49.404;8.248;2022-08-19T13:49:19;26.90;50.10
30148;DHT22;16960;49.404;8.248;2022-08-19T13:51:47;26.90;50.10
30148;DHT22;16960;49.404;8.248;2022-08-19T13:54:14;26.90;50.00
30148;DHT22;16960;49.404;8.248;2022-08-19T13:56:44;26.90;50.00
30148;DHT22;16960;49.404;8.248;2022-08-19T13:59:12;26.90;50.00
30148;DHT22;16960;49.404;8.248;2022-08-19T14:01:39;26.90;50.00
30148;DHT22;16960;49.404;8.248;2022-08-19T14:04:07;26.90;50.00
30148;DHT22;16960;49.404;8.248;2022-08-19T14:06:34;26.90;50.00
30148;DHT22;16960;49.404;8.248;2022-08-19T14:09:01;26.90;50.00
30148;DHT22;16960;49.404;8.248;2022-08-19T14:11:29;26.90;49.90
30148;DHT22;16960;49.404;8.248;2022-08-19T14:13:57;26.90;50.10
30148;DHT22;16960;49.404;8.248;2022-08-19T14:16:24;26.90;50.10
30148;DHT22;16960;49.404;8.248;2022-08-19T14:18:52;26.90;50.10
30148;DHT22;16960;49.404;8.248;2022-08-19T14:21:21;26.90;50.20
30148;DHT22;16960;49.404;8.248;2022-08-19T14:23:50;26.90;50.10
30148;DHT22;16960;49.404;8.248;2022-08-19T14:26:18;26.90;50.20
30148;DHT22;16960;49.404;8.248;2022-08-19T14:28:46;26.90;50.10
30148;DHT22;16960;49.404;8.248;2022-08-19T14:31:16;26.90;50.10
30148;DHT22;16960;49.404;8.248;2022-08-19T14:33:44;26.90;50.10
30148;DHT22;16960;49.404;8.248;2022-08-19T14:36:11;26.90;50.20
30148;DHT22;16960;49.404;8.248;2022-08-19T14:38:38;27.00;50.70
30148;DHT22;16960;49.404;8.248;2022-08-19T14:41:11;27.00;50.90
30148;DHT22;16960;49.404;8.248;2022-08-19T14:43:39;27.00;50.90
30148;DHT22;16960;49.404;8.248;2022-08-19T14:46:07;27.00;50.80
30148;DHT22;16960;49.404;8.248;2022-08-19T14:48:37;27.00;50.60
30148;DHT22;16960;49.404;8.248;2022-08-19T14:51:04;27.00;50.60
30148;DHT22;16960;49.404;8.248;2022-08-19T14:53:31;27.10;50.60
30148;DHT22;16960;49.404;8.248;2022-08-19T14:55:59;27.10;50.60
30148;DHT22;16960;49.404;8.248;2022-08-19T14:58:27;27.10;50.90
30148;DHT22;16960;49.404;8.248;2022-08-19T15:00:54;27.10;50.70
30148;DHT22;16960;49.404;8.248;2022-08-19T15:03:21;27.00;50.60
30148;DHT22;16960;49.404;8.248;2022-08-19T15:05:49;27.10;50.60
30148;DHT22;16960;49.404;8.248;2022-08-19T15:08:16;27.10;50.60
30148;DHT22;16960;49.404;8.248;2022-08-19T15:10:43;27.10;50.60
30148;DHT22;16960;49.404;8.248;2022-08-19T15:13:13;27.10;50.70
30148;DHT22;16960;49.404;8.248;2022-08-19T15:15:40;27.10;50.70
30148;DHT22;16960;49.404;8.248;2022-08-19T15:18:07;27.10;50.80
30148;DHT22;16960;49.404;8.248;2022-08-19T15:20:34;27.10;50.80
30148;DHT22;16960;49.404;8.248;2022-08-19T15:23:02;27.10;50.70
30148;DHT22;16960;49.404;8.248;2022-08-19T15:25:29;27.10;50.70
30148;DHT22;16960;49.404;8.248;2022-08-19T15:27:56;27.20;50.60
30148;DHT22;16960;49.404;8.248;2022-08-19T15:30:27;27.10;50.60
30148;DHT22;16960;49.404;8.248;2022-08-19T15:32:54;27.10;50.60
30148;DHT22;16960;49.404;8.248;2022-08-19T15:35:23;27.10;50.60
30148;DHT22;16960;49.404;8.248;2022-08-19T15:37:51;27.20;50.80
30148;DHT22;16960;49.404;8.248;2022-08-19T15:40:20;27.20;50.80